Time;durP1;ratioP1;P1;durP2;ratioP2;P2;SDS_P1;SDS_P2;PMS_P1;PMS_P2;Temp;Humidity;BMP_temperature;BMP_pressure;BME280_temperature;BME280_humidity;BME280_pressure;Samples;Min_cycle;Max_cycle;Signal;HPM_P1;HPM_P2
2024/01/11 00:02:00;;;;;;;32.97;18.05;;;;;;;-4.28;53.19;94742.16;5051644;28;20346;-69
2024/01/11 00:04:26;;;;;;;43.38;20.35;;;;;;;-4.37;53.46;94722.59;5017176;28;20049;-69
2024/01/11 00:06:51;;;;;;;49.63;22.02;;;;;;;-4.25;53.61;94740.00;4962152;28;20053;-69
2024/01/11 00:09:16;;;;;;;49.58;21.80;;;;;;;-4.26;53.14;94716.81;4969446;28;20034;-69
2024/01/11 00:11:42;;;;;;;48.30;20.38;;;;;;;-4.25;52.80;94705.44;4969158;28;20391;-69
2024/01/11 00:14:07;;;;;;;46.40;17.77;;;;;;;-4.27;52.69;94702.22;4965968;28;20043;-69
2024/01/11 00:16:33;;;;;;;55.42;21.75;;;;;;;-4.28;52.47;94698.81;4972811;28;20048;-69
2024/01/11 00:18:58;;;;;;;31.63;15.23;;;;;;;-4.29;52.52;94719.81;4965551;28;20066;-69
2024/01/11 00:21:24;;;;;;;21.70;12.32;;;;;;;-4.30;52.68;94720.81;4951010;28;20676;-69
2024/01/11 00:23:50;;;;;;;22.50;12.77;;;;;;;-4.31;52.59;94724.41;4966085;28;20033;-69
2024/01/11 00:26:15;;;;;;;34.65;15.25;;;;;;;-4.41;52.56;94729.97;5028447;28;20092;-69
2024/01/11 00:28:41;;;;;;;34.83;16.63;;;;;;;-4.60;52.72;94699.59;5048503;28;20636;-69
2024/01/11 00:31:06;;;;;;;28.48;16.98;;;;;;;-4.54;52.93;94712.56;5048276;28;20033;-69
2024/01/11 00:33:32;;;;;;;29.88;16.77;;;;;;;-4.41;53.31;94713.59;5048936;28;20036;-69
2024/01/11 00:35:58;;;;;;;40.33;20.92;;;;;;;-4.52;53.16;94702.00;5047483;28;20032;-69
2024/01/11 00:38:23;;;;;;;46.78;22.98;;;;;;;-4.44;53.35;94723.38;5048462;28;20036;-69
2024/01/11 00:40:49;;;;;;;30.80;18.15;;;;;;;-4.41;53.47;94714.41;5046899;28;20040;-69
2024/01/11 00:43:14;;;;;;;30.58;16.40;;;;;;;-4.43;53.24;94706.81;5042778;28;20051;-70
2024/01/11 00:45:40;;;;;;;19.48;12.25;;;;;;;-4.51;53.02;94706.19;5049671;28;20033;-69
2024/01/11 00:48:05;;;;;;;21.45;13.95;;;;;;;-4.49;52.97;94702.41;5050138;28;20036;-69
2024/01/11 00:50:31;;;;;;;21.17;13.82;;;;;;;-4.59;53.02;94696.81;5049347;28;20420;-69
2024/01/11 00:52:57;;;;;;;22.13;12.93;;;;;;;-4.46;53.14;94702.00;5049525;28;20039;-69
2024/01/11 00:55:24;;;;;;;27.65;15.02;;;;;;;-4.48;52.86;94683.22;5045067;28;20596;-69
2024/01/11 00:57:50;;;;;;;23.17;13.52;;;;;;;-4.39;52.60;94686.41;5050001;28;20064;-70
2024/01/11 01:00:16;;;;;;;21.23;12.68;;;;;;;-4.35;52.56;94686.84;5031380;28;20057;-69
2024/01/11 01:02:41;;;;;;;17.52;10.93;;;;;;;-4.30;52.46;94694.84;5049292;28;20507;-69
2024/01/11 01:05:07;;;;;;;17.40;11.15;;;;;;;-4.41;52.38;94674.66;5052285;28;20033;-69
2024/01/11 01:07:36;;;;;;;16.90;10.20;;;;;;;-4.39;52.54;94680.44;5045166;28;20086;-69
2024/01/11 01:10:01;;;;;;;15.73;10.60;;;;;;;-4.36;52.85;94685.25;5051630;28;20044;-69
2024/01/11 01:12:28;;;;;;;14.88;9.90;;;;;;;-4.33;52.76;94685.63;5048089;28;20020;-70
2024/01/11 01:14:55;;;;;;;16.98;10.60;;;;;;;-4.57;53.02;94676.63;5051607;28;20031;-70
2024/01/11 01:17:21;;;;;;;14.68;10.27;;;;;;;-4.62;53.08;94676.44;5047175;28;20036;-69
2024/01/11 01:19:47;;;;;;;15.43;11.60;;;;;;;-4.76;53.04;94664.44;5047063;28;20525;-69
2024/01/11 01:22:12;;;;;;;21.63;11.45;;;;;;;-4.57;52.97;94687.03;5049065;28;20044;-69
2024/01/11 01:24:37;;;;;;;15.85;11.10;;;;;;;-4.56;53.07;94680.84;5049878;28;20450;-69
2024/01/11 01:27:03;;;;;;;14.52;10.32;;;;;;;-4.51;53.26;94688.81;5051206;28;20032;-69
2024/01/11 01:29:28;;;;;;;13.73;10.38;;;;;;;-4.53;53.09;94684.81;5048088;28;20438;-69
2024/01/11 01:31:54;;;;;;;14.68;10.38;;;;;;;-4.38;52.96;94689.81;5047831;28;20500;-69
2024/01/11 01:34:19;;;;;;;15.20;10.10;;;;;;;-4.48;52.75;94672.84;5050481;28;20494;-70
2024/01/11 01:36:45;;;;;;;19.45;11.88;;;;;;;-4.49;52.99;94681.63;5048238;28;20032;-69
2024/01/11 01:39:11;;;;;;;19.13;11.95;;;;;;;-4.50;53.16;94687.84;5052158;28;20630;-69
2024/01/11 01:41:36;;;;;;;21.40;12.25;;;;;;;-4.53;53.38;94683.03;5049833;28;20592;-69
2024/01/11 01:44:02;;;;;;;22.63;12.65;;;;;;;-4.57;53.36;94666.25;5048201;28;20037;-69
2024/01/11 01:46:27;;;;;;;19.45;12.38;;;;;;;-4.46;52.85;94663.06;5050317;28;20472;-69
2024/01/11 01:48:55;;;;;;;17.00;12.07;;;;;;;-4.57;52.91;94653.28;5049922;28;20069;-69
2024/01/11 01:51:21;;;;;;;19.65;12.68;;;;;;;-4.42;53.08;94650.47;5029065;28;20036;-69
2024/01/11 01:53:51;;;;;;;21.10;13.38;;;;;;;-4.56;52.95;94630.72;5051029;28;20103;-69
2024/01/11 01:56:17;;;;;;;20.35;11.85;;;;;;;-4.27;52.69;94652.88;5052715;28;20090;-69
2024/01/11 01:58:43;;;;;;;22.70;12.40;;;;;;;-4.33;52.82;94645.88;5050133;28;20354;-69
2024/01/11 02:01:08;;;;;;;16.73;10.65;;;;;;;-4.36;52.87;94638.50;5050666;28;20041;-69
2024/01/11 02:03:36;;;;;;;18.52;12.55;;;;;;;-4.57;52.70;94606.53;5051647;28;20501;-69
2024/01/11 02:06:04;;;;;;;14.98;10.48;;;;;;;-4.45;52.65;94635.31;5050223;28;20021;-69
2024/01/11 02:08:31;;;;;;;17.85;11.98;;;;;;;-4.50;52.82;94646.28;5048037;28;20052;-69
2024/01/11 02:10:59;;;;;;;19.67;12.20;;;;;;;-4.63;52.65;94638.47;5048554;28;20025;-69
2024/01/11 02:13:24;;;;;;;21.55;11.93;;;;;;;-4.55;52.77;94638.31;5047767;28;20076;-69
2024/01/11 02:15:50;;;;;;;20.13;12.05;;;;;;;-4.67;52.57;94629.50;5035399;28;20128;-69
2024/01/11 02:18:15;;;;;;;19.95;11.00;;;;;;;-4.87;52.74;94621.69;5064448;28;20028;-69
2024/01/11 02:20:41;;;;;;;21.95;13.60;;;;;;;-4.97;53.07;94610.09;5069754;28;20055;-69
2024/01/11 02:23:19;;;;;;;22.60;12.07;;;;;;;-4.91;52.96;94635.25;5070316;28;20036;-69
2024/01/11 02:25:44;;;;;;;20.70;12.57;;;;;;;-5.03;53.26;94634.25;5024855;28;20296;-69
2024/01/11 02:28:11;;;;;;;21.50;15.07;;;;;;;-4.91;53.08;94640.47;4993245;28;20449;-69
2024/01/11 02:30:36;;;;;;;20.08;13.75;;;;;;;-4.86;53.06;94635.47;4997262;28;20038;-69
2024/01/11 02:33:05;;;;;;;28.52;15.23;;;;;;;-4.96;53.16;94637.66;4995843;28;20236;-69
2024/01/11 02:35:31;;;;;;;27.20;15.07;;;;;;;-5.23;53.57;94604.88;4987656;28;20045;-69
2024/01/11 02:37:59;;;;;;;18.75;13.23;;;;;;;-5.09;53.50;94622.88;4987534;28;20163;-69
2024/01/11 02:40:26;;;;;;;22.70;13.90;;;;;;;-5.32;53.54;94592.09;4995785;28;20080;-69
2024/01/11 02:42:51;;;;;;;18.55;12.02;;;;;;;-5.14;53.31;94630.44;4994175;28;20064;-69
2024/01/11 02:45:17;;;;;;;17.83;10.95;;;;;;;-5.30;53.69;94620.41;4995605;28;20065;-69
2024/01/11 02:47:42;;;;;;;16.23;11.32;;;;;;;-5.36;53.86;94629.78;4999614;28;20091;-69
2024/01/11 02:50:08;;;;;;;21.60;12.55;;;;;;;-5.43;54.11;94623.78;4995631;28;20030;-69
2024/01/11 02:52:34;;;;;;;20.77;12.70;;;;;;;-5.33;53.97;94613.84;4995761;28;20048;-69
2024/01/11 02:54:59;;;;;;;20.38;12.70;;;;;;;-5.45;53.77;94605.03;4992894;28;20131;-69
2024/01/11 02:57:25;;;;;;;19.75;12.75;;;;;;;-5.33;53.83;94620.81;4984173;28;20158;-69
2024/01/11 02:59:51;;;;;;;20.45;13.60;;;;;;;-5.35;53.44;94612.44;4993134;28;20038;-69
2024/01/11 03:02:17;;;;;;;24.98;14.73;;;;;;;-5.31;53.72;94616.22;4996565;28;20125;-69
2024/01/11 03:04:42;;;;;;;22.95;14.77;;;;;;;-5.34;53.62;94607.06;4996689;28;20200;-69
2024/01/11 03:07:08;;;;;;;28.67;14.55;;;;;;;-5.24;53.75;94616.25;4992623;28;20058;-69
2024/01/11 03:09:34;;;;;;;21.60;14.15;;;;;;;-5.42;53.57;94607.22;4995800;28;20049;-69
2024/01/11 03:12:00;;;;;;;17.98;11.77;;;;;;;-5.35;53.43;94615.81;4992665;28;20022;-69
2024/01/11 03:14:25;;;;;;;15.77;10.75;;;;;;;-5.36;53.38;94616.00;5067738;28;20732;-69
2024/01/11 03:16:50;;;;;;;18.17;11.32;;;;;;;-5.75;53.61;94580.38;5070015;28;20032;-69
2024/01/11 03:19:16;;;;;;;17.70;11.98;;;;;;;-5.54;53.80;94605.38;5071694;28;20467;-69
2024/01/11 03:21:46;;;;;;;20.02;12.00;;;;;;;-5.39;53.73;94622.41;5069935;28;20029;-69
2024/01/11 03:24:12;;;;;;;21.33;12.00;;;;;;;-5.45;53.62;94610.22;5072292;28;20018;-69
2024/01/11 03:26:37;;;;;;;21.75;14.13;;;;;;;-5.64;53.68;94603.16;5073120;28;20429;-69
2024/01/11 03:29:02;;;;;;;28.35;14.48;;;;;;;-5.71;53.97;94607.50;5071793;28;20044;-69
2024/01/11 03:31:28;;;;;;;25.50;15.20;;;;;;;-5.63;53.78;94594.41;5071304;28;20086;-69
2024/01/11 03:33:53;;;;;;;29.80;16.88;;;;;;;-5.60;53.69;94609.56;5073021;28;20043;-69
2024/01/11 03:36:23;;;;;;;29.02;17.63;;;;;;;-5.81;54.10;94592.31;5075581;28;20489;-68
2024/01/11 03:38:48;;;;;;;37.20;18.52;;;;;;;-5.66;54.09;94615.50;5073203;28;20024;-69
2024/01/11 03:41:14;;;;;;;28.00;19.98;;;;;;;-5.68;54.39;94617.50;5067993;28;20526;-69
2024/01/11 03:43:39;;;;;;;29.55;18.40;;;;;;;-5.66;54.39;94614.72;5072629;28;20036;-69
2024/01/11 03:46:05;;;;;;;33.97;20.48;;;;;;;-5.54;53.76;94603.59;5071943;28;20908;-69
2024/01/11 03:48:31;;;;;;;31.48;19.50;;;;;;;-5.83;53.97;94572.78;5085123;28;20255;-69
2024/01/11 03:50:56;;;;;;;36.67;21.77;;;;;;;-5.45;53.51;94610.22;5074980;28;20039;-69
2024/01/11 03:53:22;;;;;;;28.02;18.77;;;;;;;-5.36;53.60;94616.00;5071037;28;20033;-69
2024/01/11 03:55:47;;;;;;;36.75;21.75;;;;;;;-5.29;53.58;94610.84;5072121;28;20037;-69
2024/01/11 03:58:12;;;;;;;31.15;20.63;;;;;;;-5.48;53.49;94589.06;5073215;28;20173;-69
2024/01/11 04:00:38;;;;;;;28.50;18.10;;;;;;;-5.24;53.62;94598.91;5072365;28;20508;-69
2024/01/11 04:03:03;;;;;;;32.85;19.10;;;;;;;-5.35;53.57;94592.50;5079580;28;20040;-69
2024/01/11 04:05:29;;;;;;;34.42;19.85;;;;;;;-5.28;53.66;94596.91;5071135;28;20039;-69
2024/01/11 04:07:54;;;;;;;31.17;17.80;;;;;;;-5.21;53.57;94582.94;5071746;28;20585;-69
2024/01/11 04:10:19;;;;;;;30.67;17.67;;;;;;;-5.07;53.29;94587.13;5073353;28;20036;-69
2024/01/11 04:12:45;;;;;;;27.17;16.35;;;;;;;-5.05;53.06;94597.31;5069688;28;20031;-69
2024/01/11 04:15:14;;;;;;;24.15;14.68;;;;;;;-5.13;52.89;94574.19;5072892;28;20036;-69
2024/01/11 04:17:39;;;;;;;23.85;13.93;;;;;;;-5.29;52.72;94574.53;5074422;28;20044;-69
2024/01/11 04:20:06;;;;;;;25.55;15.27;;;;;;;-5.42;52.88;94570.91;5071171;28;20400;-69
2024/01/11 04:22:31;;;;;;;35.63;18.85;;;;;;;-5.50;53.01;94573.69;5071044;28;20068;-69
2024/01/11 04:24:57;;;;;;;33.08;17.63;;;;;;;-5.27;53.06;94582.94;5074350;28;20509;-69
2024/01/11 04:27:22;;;;;;;30.52;19.52;;;;;;;-5.31;52.67;94572.13;5073180;28;20036;-69
2024/01/11 04:29:47;;;;;;;33.10;19.75;;;;;;;-5.76;53.18;94550.31;5088421;28;20119;-70
2024/01/11 04:32:13;;;;;;;34.75;21.23;;;;;;;-5.49;53.21;94584.88;5068345;28;20378;-69
2024/01/11 04:34:38;;;;;;;39.10;21.92;;;;;;;-5.39;52.96;94590.47;5071888;28;22798;-69
2024/01/11 04:37:03;;;;;;;34.58;21.13;;;;;;;-5.57;53.17;94578.09;5071383;28;20040;-69
2024/01/11 04:39:29;;;;;;;36.63;21.95;;;;;;;-5.50;53.07;94581.47;5072835;28;20040;-69
2024/01/11 04:41:54;;;;;;;35.92;20.13;;;;;;;-5.45;53.35;94589.47;5071979;28;20028;-69
2024/01/11 04:44:20;;;;;;;32.42;18.83;;;;;;;-5.46;53.47;94584.47;5070615;28;20045;-69
2024/01/11 04:46:45;;;;;;;32.47;18.23;;;;;;;-5.36;53.27;94583.09;5074082;28;20036;-69
2024/01/11 04:49:10;;;;;;;25.83;16.77;;;;;;;-5.50;53.34;94589.25;5071448;28;20509;-69
2024/01/11 04:51:36;;;;;;;23.65;14.48;;;;;;;-5.52;53.25;94601.63;5070511;28;20032;-69
2024/01/11 04:54:01;;;;;;;22.50;15.15;;;;;;;-5.49;52.66;94596.03;5072696;28;20103;-69
2024/01/11 04:56:26;;;;;;;23.45;14.05;;;;;;;-5.56;52.79;94594.41;5067547;28;20565;-68
2024/01/11 04:58:52;;;;;;;22.52;13.70;;;;;;;-5.63;52.99;94589.22;5069409;28;20043;-69
2024/01/11 05:01:18;;;;;;;20.45;13.57;;;;;;;-5.63;53.47;94599.59;5071184;28;20537;-69
2024/01/11 05:03:45;;;;;;;22.95;14.38;;;;;;;-5.73;53.48;94599.16;5072494;28;20496;-69
2024/01/11 05:06:18;;;;;;;34.35;20.38;;;;;;;-5.71;53.36;94591.97;5073403;28;20024;-69
2024/01/11 05:08:45;;;;;;;34.47;20.17;;;;;;;-5.54;53.05;94597.63;5073641;28;20539;-69
2024/01/11 05:11:22;;;;;;;38.17;21.60;;;;;;;-5.69;52.83;94558.88;5071663;28;20040;-69
2024/01/11 05:13:49;;;;;;;36.65;21.23;;;;;;;-5.43;52.51;94597.06;5071822;28;20028;-69
2024/01/11 05:16:28;;;;;;;39.88;21.20;;;;;;;-5.62;52.79;94569.28;5065994;28;20032;-69
2024/01/11 05:18:55;;;;;;;36.38;23.92;;;;;;;-5.44;53.05;94590.28;5071467;28;20080;-69
2024/01/11 05:21:21;;;;;;;37.03;22.75;;;;;;;-5.52;53.21;94565.34;5070397;28;20033;-68
2024/01/11 05:23:47;;;;;;;36.90;21.30;;;;;;;-5.35;53.22;94581.31;5075515;28;20039;-69
2024/01/11 05:26:14;;;;;;;37.55;22.60;;;;;;;-5.33;53.16;94564.59;5069471;28;20762;-69
2024/01/11 05:28:39;;;;;;;35.00;20.00;;;;;;;-5.34;52.76;94562.97;5073547;28;20362;-69
2024/01/11 05:31:13;;;;;;;33.30;20.58;;;;;;;-5.25;52.67;94578.34;5069250;28;20036;-69
2024/01/11 05:33:39;;;;;;;37.42;21.33;;;;;;;-5.26;52.47;94556.00;5073044;28;20089;-69
2024/01/11 05:36:05;;;;;;;46.15;29.80;;;;;;;-5.28;52.36;94552.81;5073032;28;20549;-69
2024/01/11 05:38:31;;;;;;;40.95;26.60;;;;;;;-5.42;52.69;94560.53;5070688;28;20111;-69
2024/01/11 05:40:56;;;;;;;29.77;21.42;;;;;;;-5.33;52.47;94559.41;5072793;28;20779;-69
2024/01/11 05:43:23;;;;;;;31.75;19.33;;;;;;;-5.24;52.46;94556.59;5070229;28;20434;-69
2024/01/11 05:45:49;;;;;;;36.85;20.92;;;;;;;-5.25;51.91;94555.00;5074411;28;20032;-69
2024/01/11 05:48:15;;;;;;;30.00;20.40;;;;;;;-5.39;52.29;94555.00;5071121;28;20027;-69
2024/01/11 05:50:41;;;;;;;34.92;19.15;;;;;;;-5.31;52.65;94566.97;5071864;28;20152;-69
2024/01/11 05:53:06;;;;;;;29.13;17.58;;;;;;;-5.33;52.39;94567.16;5071443;28;20028;-69
2024/01/11 05:55:31;;;;;;;28.83;16.95;;;;;;;-5.31;52.00;94547.00;5070719;28;20508;-69
2024/01/11 05:57:57;;;;;;;25.73;17.10;;;;;;;-5.39;51.97;94549.00;5075626;28;20041;-69
2024/01/11 06:00:23;;;;;;;23.48;15.75;;;;;;;-5.32;52.20;94540.22;5076774;28;20492;-69
2024/01/11 06:02:48;;;;;;;21.08;13.32;;;;;;;-5.20;52.01;94547.44;5079340;28;20392;-69
2024/01/11 06:05:15;;;;;;;21.05;12.52;;;;;;;-5.24;52.10;94539.25;5074531;28;20088;-69
2024/01/11 06:07:40;;;;;;;24.70;14.63;;;;;;;-5.27;52.01;94533.69;5076160;28;20047;-69
2024/01/11 06:10:08;;;;;;;22.23;16.08;;;;;;;-5.27;52.03;94531.84;5077421;28;20575;-69
2024/01/11 06:12:33;;;;;;;22.60;14.25;;;;;;;-5.11;51.94;94536.66;5076689;28;20169;-69
2024/01/11 06:14:59;;;;;;;24.02;14.10;;;;;;;-5.20;51.90;94542.25;5075566;28;20906;-69
2024/01/11 06:17:24;;;;;;;23.90;14.27;;;;;;;-5.07;52.04;94552.63;5075718;28;20036;-69
2024/01/11 06:19:50;;;;;;;21.15;14.57;;;;;;;-5.10;52.01;94542.66;5076300;28;20043;-69
2024/01/11 06:22:15;;;;;;;27.73;16.52;;;;;;;-5.20;51.86;94547.44;5073023;28;20048;-69
2024/01/11 06:24:41;;;;;;;32.03;18.23;;;;;;;-5.09;51.76;94545.06;5075289;28;20391;-70
2024/01/11 06:27:06;;;;;;;34.22;18.98;;;;;;;-5.11;51.55;94521.09;5076383;28;20469;-69
2024/01/11 06:29:32;;;;;;;34.80;19.20;;;;;;;-4.91;51.09;94552.22;5075233;28;20037;-69
2024/01/11 06:31:57;;;;;;;38.15;23.45;;;;;;;-5.02;50.97;94535.47;5073870;28;20493;-70
2024/01/11 06:34:22;;;;;;;41.60;23.15;;;;;;;-4.92;51.75;94540.25;5076869;28;20366;-69
2024/01/11 06:36:48;;;;;;;38.58;23.63;;;;;;;-5.08;52.17;94525.09;5066672;28;20100;-68
2024/01/11 06:39:13;;;;;;;40.50;24.88;;;;;;;-5.08;52.25;94522.50;5063634;28;20048;-68
2024/01/11 06:41:39;;;;;;;44.55;25.00;;;;;;;-4.87;52.26;94517.09;5074065;28;20115;-69
2024/01/11 06:44:04;;;;;;;54.35;28.08;;;;;;;-5.16;52.35;94483.78;5071951;28;20078;-71
2024/01/11 06:46:30;;;;;;;57.85;28.52;;;;;;;-4.94;52.49;94504.16;5075832;28;20036;-69
2024/01/11 06:48:56;;;;;;;59.25;31.27;;;;;;;-5.07;52.62;94480.78;5076220;28;20032;-69
2024/01/11 06:51:22;;;;;;;69.65;31.15;;;;;;;-4.81;52.84;94505.94;5055060;28;20051;-68
2024/01/11 06:53:48;;;;;;;59.40;31.85;;;;;;;-4.75;52.93;94512.91;5076120;28;20064;-68
2024/01/11 06:56:18;;;;;;;50.17;29.42;;;;;;;-4.88;53.83;94525.91;5079368;28;20654;-69
2024/01/11 06:58:44;;;;;;;50.10;29.92;;;;;;;-5.46;55.58;94511.88;5079733;28;20032;-69
2024/01/11 07:01:10;;;;;;;51.13;29.77;;;;;;;-5.11;54.74;94518.50;5075901;28;20033;-69
2024/01/11 07:03:35;;;;;;;64.43;34.00;;;;;;;-4.99;54.62;94523.91;5077465;28;20020;-69
2024/01/11 07:06:01;;;;;;;65.60;36.67;;;;;;;-4.82;54.75;94526.88;5075603;28;20107;-69
2024/01/11 07:08:26;;;;;;;56.72;33.50;;;;;;;-5.04;54.83;94510.75;5076675;28;20056;-68
2024/01/11 07:10:52;;;;;;;59.45;34.35;;;;;;;-4.89;54.44;94508.75;5079752;28;20036;-69
2024/01/11 07:13:17;;;;;;;56.42;31.75;;;;;;;-4.71;54.28;94532.28;5083249;28;20040;-69
2024/01/11 07:15:43;;;;;;;62.75;33.58;;;;;;;-5.01;54.71;94531.06;5075895;28;20299;-69
2024/01/11 07:18:09;;;;;;;57.30;32.47;;;;;;;-5.23;55.39;94524.50;5079382;28;20024;-68
2024/01/11 07:20:34;;;;;;;51.03;32.78;;;;;;;-4.99;55.31;94532.50;5078542;28;20039;-69
2024/01/11 07:23:00;;;;;;;60.25;35.85;;;;;;;-4.90;55.05;94533.09;5078998;28;20575;-68
2024/01/11 07:25:25;;;;;;;53.30;32.80;;;;;;;-5.28;55.46;94513.91;5077996;28;20075;-68
2024/01/11 07:27:51;;;;;;;54.45;33.80;;;;;;;-4.92;55.63;94514.31;5074353;28;20039;-69
2024/01/11 07:30:18;;;;;;;58.30;35.30;;;;;;;-4.66;54.85;94524.69;5079575;28;20025;-68
2024/01/11 07:32:44;;;;;;;60.40;33.60;;;;;;;-4.51;54.72;94516.66;5078734;28;20020;-69
2024/01/11 07:35:10;;;;;;;54.53;33.55;;;;;;;-4.48;54.60;94519.66;5080738;28;20035;-69
2024/01/11 07:37:36;;;;;;;57.55;35.35;;;;;;;-4.44;54.81;94518.25;5075540;28;20515;-69
2024/01/11 07:40:02;;;;;;;52.90;33.38;;;;;;;-4.31;54.24;94516.63;5082188;28;20134;-69
2024/01/11 07:42:27;;;;;;;53.05;34.70;;;;;;;-4.29;53.88;94519.81;5077904;28;20540;-69
2024/01/11 07:44:53;;;;;;;66.80;37.97;;;;;;;-4.81;54.42;94441.06;5080637;28;20016;-68
2024/01/11 07:47:18;;;;;;;64.43;35.85;;;;;;;-4.25;54.37;94524.41;5077062;28;20051;-69
2024/01/11 07:49:44;;;;;;;66.15;39.70;;;;;;;-5.02;55.80;94508.72;5079731;28;20502;-69
2024/01/11 07:52:09;;;;;;;62.95;38.97;;;;;;;-4.54;55.61;94520.44;5073395;28;20113;-69
2024/01/11 07:54:35;;;;;;;67.63;40.08;;;;;;;-4.65;55.40;94510.72;5074132;28;20044;-69
2024/01/11 07:57:02;;;;;;;73.95;41.45;;;;;;;-4.47;55.60;94520.44;5077062;28;20027;-69
2024/01/11 07:59:32;;;;;;;67.40;40.88;;;;;;;-4.52;55.51;94522.84;5075399;28;20125;-69
2024/01/11 08:01:57;;;;;;;62.10;39.55;;;;;;;-4.28;54.75;94501.44;5075910;28;20151;-68
2024/01/11 08:04:23;;;;;;;66.40;41.33;;;;;;;-3.96;54.25;94504.91;5074939;28;20115;-69
2024/01/11 08:06:48;;;;;;;66.88;41.33;;;;;;;-4.17;54.50;94481.81;5071022;28;20036;-69
2024/01/11 08:09:14;;;;;;;70.22;41.47;;;;;;;-3.85;54.44;94504.25;5072902;28;20016;-67
2024/01/11 08:11:41;;;;;;;60.13;40.40;;;;;;;-3.93;54.07;94493.31;5075440;28;20031;-69
2024/01/11 08:14:07;;;;;;;64.50;39.08;;;;;;;-4.09;54.70;94505.75;5071544;28;20058;-68
2024/01/11 08:16:32;;;;;;;66.45;41.45;;;;;;;-4.09;54.63;94497.16;5073773;28;20889;-68
2024/01/11 08:18:58;;;;;;;69.90;45.15;;;;;;;-3.88;54.96;94502.06;5073549;28;20089;-68
2024/01/11 08:21:24;;;;;;;76.25;46.75;;;;;;;-3.81;54.17;94487.25;5075033;28;20067;-68
2024/01/11 08:23:49;;;;;;;69.38;43.53;;;;;;;-4.28;54.40;94446.88;5076128;28;20020;-68
2024/01/11 08:26:15;;;;;;;72.60;41.72;;;;;;;-4.43;56.04;94482.69;5070505;28;20052;-68
2024/01/11 08:28:41;;;;;;;68.88;41.83;;;;;;;-4.43;56.06;94491.28;5074204;28;20066;-69
2024/01/11 08:31:07;;;;;;;68.85;42.10;;;;;;;-4.45;56.59;94501.09;5073446;28;20040;-68
2024/01/11 08:33:33;;;;;;;75.03;42.08;;;;;;;-4.80;57.30;94486.78;5071302;28;20042;-69
2024/01/11 08:35:58;;;;;;;81.07;47.97;;;;;;;-5.04;58.02;94490.78;5073834;28;20020;-68
2024/01/11 08:38:24;;;;;;;80.38;46.67;;;;;;;-5.37;58.92;94493.34;5074075;28;20043;-69
2024/01/11 08:40:50;;;;;;;84.15;49.80;;;;;;;-4.87;58.71;94502.34;5073699;28;20139;-69
2024/01/11 08:43:15;;;;;;;80.78;45.92;;;;;;;-4.40;57.67;94500.47;5072926;28;20143;-69
2024/01/11 08:45:40;;;;;;;74.35;44.70;;;;;;;-4.17;56.72;94485.22;5056657;28;20431;-69
2024/01/11 08:48:06;;;;;;;71.15;42.90;;;;;;;-4.35;56.10;94492.06;4977761;28;20034;-68
2024/01/11 08:50:32;;;;;;;64.50;39.95;;;;;;;-4.58;56.85;94495.91;4972074;28;20482;-68
2024/01/11 08:52:58;;;;;;;62.90;41.15;;;;;;;-4.14;56.48;94479.59;4964417;28;20100;-69
2024/01/11 08:55:23;;;;;;;73.55;44.00;;;;;;;-4.40;56.43;94473.72;4972254;28;20046;-68
2024/01/11 08:57:49;;;;;;;70.97;43.17;;;;;;;-4.41;55.78;94479.91;4977851;28;20256;-68
2024/01/11 09:00:17;;;;;;;70.53;41.42;;;;;;;-4.59;56.43;94483.94;4969691;28;20091;-68
2024/01/11 09:02:43;;;;;;;67.55;40.92;;;;;;;-4.28;56.41;94475.44;4973821;28;20137;-68
2024/01/11 09:05:09;;;;;;;65.45;42.15;;;;;;;-3.84;55.75;94469.47;4977482;28;20157;-69
2024/01/11 09:07:34;;;;;;;61.25;39.42;;;;;;;-3.46;54.38;94460.88;4974790;28;20479;-69
2024/01/11 09:10:00;;;;;;;64.65;41.30;;;;;;;-4.03;55.15;94462.56;4972202;28;20042;-68
2024/01/11 09:12:25;;;;;;;60.58;39.10;;;;;;;-4.32;55.69;94453.50;4973572;28;20038;-69
2024/01/11 09:14:50;;;;;;;62.22;38.60;;;;;;;-4.00;55.79;94462.16;4977325;28;20042;-68
2024/01/11 09:17:16;;;;;;;63.30;40.15;;;;;;;-3.78;54.12;94449.66;4973926;28;20043;-68
2024/01/11 09:19:41;;;;;;;66.63;40.35;;;;;;;-4.25;55.67;94456.88;4977755;28;20092;-68
2024/01/11 09:22:09;;;;;;;68.35;42.85;;;;;;;-4.67;56.65;94455.59;4972693;28;20035;-68
2024/01/11 09:24:35;;;;;;;70.00;42.13;;;;;;;-4.19;56.51;94437.84;4978796;28;20118;-68
2024/01/11 09:27:01;;;;;;;65.97;40.33;;;;;;;-3.61;55.04;94441.13;5000731;28;20355;-68
2024/01/11 09:29:27;;;;;;;60.75;39.53;;;;;;;-3.31;54.21;94414.50;4997708;28;20046;-68
2024/01/11 09:31:53;;;;;;;58.60;37.40;;;;;;;-3.10;53.09;94411.53;4996897;28;20297;-69
2024/01/11 09:34:18;;;;;;;65.20;39.38;;;;;;;-3.05;53.59;94429.09;5029907;28;20505;-69
2024/01/11 09:36:45;;;;;;;65.18;39.95;;;;;;;-2.79;52.83;94426.28;5081371;28;20040;-69
2024/01/11 09:39:13;;;;;;;70.78;41.58;;;;;;;-2.60;52.99;94429.69;5081036;28;20041;-69
2024/01/11 09:41:43;;;;;;;66.40;39.80;;;;;;;-2.44;52.54;94411.69;5075022;28;20051;-69
2024/01/11 09:44:09;;;;;;;65.68;40.15;;;;;;;-2.55;51.55;94409.78;5076968;28;20340;-68
2024/01/11 09:46:35;;;;;;;64.18;37.63;;;;;;;-2.24;51.11;94405.44;5079598;28;20040;-68
2024/01/11 09:49:02;;;;;;;62.05;38.30;;;;;;;-2.18;50.77;94405.34;5075714;28;20403;-68
2024/01/11 09:51:29;;;;;;;61.35;38.72;;;;;;;-2.14;50.71;94375.22;5076158;28;20035;-68
2024/01/11 09:53:58;;;;;;;62.65;39.80;;;;;;;-2.09;50.12;94383.16;5077750;28;20531;-69
2024/01/11 09:56:24;;;;;;;63.58;39.13;;;;;;;-2.57;51.17;94370.13;5076922;28;20044;-70
2024/01/11 09:58:50;;;;;;;76.30;39.65;;;;;;;-2.16;50.32;94381.66;5079327;28;20032;-68
2024/01/11 10:01:16;;;;;;;64.78;41.90;;;;;;;-2.05;50.25;94371.31;5077505;28;20036;-68
2024/01/11 10:03:42;;;;;;;67.63;41.28;;;;;;;-1.97;50.13;94376.19;5077513;28;20029;-68
2024/01/11 10:06:09;;;;;;;70.03;42.60;;;;;;;-1.77;50.46;94381.13;5082587;28;20085;-68
2024/01/11 10:08:35;;;;;;;69.18;41.33;;;;;;;-1.92;50.27;94378.94;5078954;28;20080;-68
2024/01/11 10:11:01;;;;;;;60.63;40.35;;;;;;;-2.33;51.43;94352.81;5078190;28;20032;-68
2024/01/11 10:13:30;;;;;;;65.90;42.67;;;;;;;-2.11;51.33;94353.94;5076254;28;20535;-68
2024/01/11 10:16:07;;;;;;;69.15;40.95;;;;;;;-1.64;49.92;94359.28;5078319;28;20128;-68
2024/01/11 10:18:32;;;;;;;68.93;40.60;;;;;;;-1.57;49.13;94360.78;5080118;28;20103;-68
2024/01/11 10:20:58;;;;;;;71.72;42.38;;;;;;;-1.48;49.47;94350.81;5079582;28;20099;-68
2024/01/11 10:23:23;;;;;;;67.00;42.50;;;;;;;-1.55;49.80;94340.47;5079366;28;20044;-68
2024/01/11 10:25:49;;;;;;;67.50;41.50;;;;;;;-1.44;49.83;94347.50;5078222;28;20123;-68
2024/01/11 10:28:15;;;;;;;71.55;44.60;;;;;;;-1.33;49.38;94330.28;5080835;28;20036;-68
2024/01/11 10:30:40;;;;;;;67.13;43.47;;;;;;;-1.36;49.58;94330.72;5077907;28;20101;-69
2024/01/11 10:33:07;;;;;;;66.57;39.67;;;;;;;-1.25;49.79;94332.53;5078233;28;20012;-68
2024/01/11 10:35:35;;;;;;;64.63;40.88;;;;;;;-1.02;49.37;94327.31;5082051;28;20154;-68
2024/01/11 10:38:06;;;;;;;67.10;43.33;;;;;;;-0.98;47.45;94294.53;5075254;28;20043;-68
2024/01/11 10:40:31;;;;;;;69.72;40.95;;;;;;;-1.10;48.15;94308.59;5079270;28;20036;-68
2024/01/11 10:43:01;;;;;;;62.67;40.92;;;;;;;-1.11;47.92;94305.19;5078660;28;20036;-68
2024/01/11 10:45:28;;;;;;;62.88;42.00;;;;;;;-0.93;48.32;94293.84;5076107;28;20040;-68
2024/01/11 10:48:13;;;;;;;66.55;41.78;;;;;;;-1.10;48.66;94293.72;5082725;28;20221;-68
2024/01/11 10:50:43;;;;;;;;;;;;;;;-1.15;48.98;94304.06;5075868;28;20129;-68
2024/01/11 10:53:33;;;;;;;61.85;41.30;;;;;;;-1.11;48.86;94266.03;5079577;28;19924;-69
2024/01/11 10:55:59;;;;;;;66.07;40.60;;;;;;;-1.29;48.54;94289.66;5078384;28;25290;-68
2024/01/11 10:58:26;;;;;;;62.15;40.70;;;;;;;-1.38;49.13;94301.47;5078563;28;20404;-69
2024/01/11 11:00:56;;;;;;;65.68;44.50;;;;;;;-1.65;49.80;94276.81;5073638;28;20058;-69
2024/01/11 11:03:24;;;;;;;71.45;45.50;;;;;;;-1.83;50.54;94288.94;5075561;28;20115;-69
2024/01/11 11:05:53;;;;;;;65.65;43.85;;;;;;;-1.98;50.73;94282.56;5076593;28;20389;-69
2024/01/11 11:08:19;;;;;;;70.18;42.80;;;;;;;-1.90;50.47;94283.03;5078697;28;20113;-69
2024/01/11 11:10:47;;;;;;;67.03;42.97;;;;;;;-1.59;50.55;94273.31;5078693;28;20381;-69
2024/01/11 11:13:15;;;;;;;66.78;43.60;;;;;;;-1.54;50.62;94266.41;5075518;28;20036;-69